Time;durP1;ratioP1;P1;durP2;ratioP2;P2;SDS_P1;SDS_P2;PMS_P1;PMS_P2;Temp;Humidity;BMP_temperature;BMP_pressure;BME280_temperature;BME280_humidity;BME280_pressure;Samples;Min_cycle;Max_cycle;Signal;HPM_P1;HPM_P2
2022/08/20 00:00:19;;;;;;;9.30;5.47;;;22.20;99.90;;;;;;6224451;28;20225;-65
2022/08/20 00:03:26;;;;;;;6.13;5.53;;;22.20;99.90;;;;;;6237069;28;20221;-65
2022/08/20 00:06:32;;;;;;;9.37;6.13;;;22.20;99.90;;;;;;6235302;28;20224;-65
2022/08/20 00:09:35;;;;;;;7.27;6.20;;;22.10;99.90;;;;;;6227816;28;20225;-65
2022/08/20 00:12:43;;;;;;;6.00;5.40;;;22.10;99.90;;;;;;6231683;28;20213;-63
2022/08/20 00:15:47;;;;;;;8.30;5.73;;;22.10;99.90;;;;;;6234017;28;20239;-64
2022/08/20 00:18:51;;;;;;;6.30;5.70;;;22.10;99.90;;;;;;6231870;28;20224;-64
2022/08/20 00:21:55;;;;;;;7.23;5.37;;;22.10;99.90;;;;;;6246093;28;20237;-64
2022/08/20 00:25:00;;;;;;;7.33;6.00;;;22.10;99.90;;;;;;6240810;28;20229;-64
2022/08/20 00:28:05;;;;;;;10.17;6.40;;;22.10;99.90;;;;;;6253312;28;20647;-64
2022/08/20 00:31:11;;;;;;;9.10;5.50;;;22.10;99.90;;;;;;6254348;28;20189;-64
2022/08/20 00:34:15;;;;;;;5.90;5.30;;;22.10;99.90;;;;;;6245682;28;20203;-64
2022/08/20 00:37:19;;;;;;;6.30;5.43;;;22.10;99.90;;;;;;6242300;28;20229;-65
2022/08/20 00:40:26;;;;;;;6.60;4.60;;;22.10;99.90;;;;;;6231786;28;20228;-65
2022/08/20 00:43:34;;;;;;;6.20;5.50;;;22.10;99.90;;;;;;6253411;28;20224;-65
2022/08/20 00:46:39;;;;;;;10.80;5.57;;;22.10;99.90;;;;;;6254136;28;20232;-65
2022/08/20 00:49:44;;;;;;;5.40;4.87;;;22.20;99.90;;;;;;6253874;28;20244;-65
2022/08/20 00:52:52;;;;;;;7.10;5.60;;;22.10;99.90;;;;;;6253584;28;20248;-65
2022/08/20 00:55:55;;;;;;;12.17;6.57;;;22.10;99.90;;;;;;6253838;28;20233;-65
2022/08/20 00:58:59;;;;;;;8.90;6.10;;;22.00;99.90;;;;;;6253391;28;20232;-65
2022/08/20 01:02:03;;;;;;;9.57;6.20;;;22.00;99.90;;;;;;6253473;28;20235;-65
2022/08/20 01:05:09;;;;;;;7.00;5.40;;;22.00;99.90;;;;;;6248900;28;20228;-64
2022/08/20 01:08:15;;;;;;;5.47;4.60;;;22.00;99.90;;;;;;6253061;28;20696;-64
2022/08/20 01:11:21;;;;;;;7.03;5.83;;;22.00;99.90;;;;;;6253531;28;20229;-64
2022/08/20 01:14:30;;;;;;;7.60;5.90;;;22.00;99.90;;;;;;6252762;28;20589;-64
2022/08/20 01:17:36;;;;;;;9.23;6.17;;;22.00;99.90;;;;;;6253642;28;20243;-64
2022/08/20 01:20:42;;;;;;;6.47;5.70;;;22.00;99.90;;;;;;6252526;28;20235;-64
2022/08/20 01:23:59;;;;;;;6.00;5.40;;;21.90;99.90;;;;;;6252687;28;20235;-64
2022/08/20 01:27:06;;;;;;;6.87;5.30;;;21.90;99.90;;;;;;6252790;28;20675;-64
2022/08/20 01:30:09;;;;;;;8.10;4.70;;;21.70;99.90;;;;;;6253147;28;20234;-64
2022/08/20 01:33:12;;;;;;;7.07;5.23;;;21.70;99.90;;;;;;6251825;28;20251;-64
2022/08/20 01:36:18;;;;;;;7.00;6.30;;;21.60;99.90;;;;;;6252199;28;20568;-65
2022/08/20 01:39:25;;;;;;;6.47;4.90;;;21.60;99.90;;;;;;6252650;28;20248;-65
2022/08/20 01:42:36;;;;;;;7.80;4.60;;;21.60;99.90;;;;;;6252780;28;20229;-64
2022/08/20 01:46:00;;;;;;;8.60;6.20;;;21.60;99.90;;;;;;6237155;28;20229;-64
2022/08/20 01:49:12;;;;;;;7.77;5.20;;;21.60;99.90;;;;;;6227781;28;20660;-64
2022/08/20 01:52:31;;;;;;;8.97;5.80;;;21.50;99.90;;;;;;6241526;28;20237;-64
2022/08/20 01:55:34;;;;;;;7.27;5.60;;;21.50;99.90;;;;;;6246628;28;20251;-64
2022/08/20 01:58:41;;;;;;;6.57;5.10;;;21.50;99.90;;;;;;6227855;28;20225;-64
2022/08/20 02:01:45;;;;;;;6.17;5.50;;;21.40;99.90;;;;;;6227399;28;20565;-64
2022/08/20 02:04:49;;;;;;;8.63;5.80;;;21.40;99.90;;;;;;6227685;28;20256;-64
2022/08/20 02:07:52;;;;;;;9.27;4.90;;;21.50;99.90;;;;;;6227416;28;20695;-64
2022/08/20 02:10:56;;;;;;;7.00;4.80;;;21.50;99.90;;;;;;6227057;28;20225;-64
2022/08/20 02:14:01;;;;;;;7.40;5.00;;;21.40;99.90;;;;;;6227590;28;20236;-64
2022/08/20 02:17:08;;;;;;;6.60;5.10;;;21.40;99.90;;;;;;6226968;28;20294;-64
2022/08/20 02:20:14;;;;;;;9.07;5.47;;;21.40;99.90;;;;;;6226995;28;20699;-64
2022/08/20 02:23:18;;;;;;;9.83;5.67;;;21.40;99.90;;;;;;6226831;28;20251;-64
2022/08/20 02:26:21;;;;;;;7.00;5.77;;;21.30;99.90;;;;;;6226882;28;20240;-64
2022/08/20 02:29:26;;;;;;;12.53;6.10;;;21.30;99.90;;;;;;6226661;28;20229;-64
2022/08/20 02:32:29;;;;;;;6.50;4.90;;;21.30;99.90;;;;;;6226712;28;20237;-64
2022/08/20 02:35:36;;;;;;;6.23;4.80;;;21.30;99.90;;;;;;6226175;28;20233;-64
2022/08/20 02:38:40;;;;;;;7.67;5.77;;;21.30;99.90;;;;;;6226607;28;20252;-64
2022/08/20 02:41:43;;;;;;;7.53;5.27;;;21.20;99.90;;;;;;6226503;28;20229;-64
2022/08/20 02:44:48;;;;;;;6.40;5.30;;;21.20;99.90;;;;;;6226302;28;20557;-64
2022/08/20 02:47:52;;;;;;;5.20;4.70;;;21.20;99.90;;;;;;6226479;28;20665;-64
2022/08/20 02:51:00;;;;;;;7.80;5.20;;;21.20;99.90;;;;;;6226636;28;20233;-64
2022/08/20 02:54:03;;;;;;;6.60;4.97;;;21.20;99.90;;;;;;6226560;28;20308;-64
2022/08/20 02:57:12;;;;;;;9.50;5.50;;;21.10;99.90;;;;;;6226194;28;20229;-64
2022/08/20 03:00:21;;;;;;;12.13;6.23;;;21.10;99.90;;;;;;6226392;28;20241;-65
2022/08/20 03:03:25;;;;;;;7.80;5.50;;;21.10;99.90;;;;;;6226262;28;20233;-64
2022/08/20 03:06:28;;;;;;;7.23;4.60;;;21.10;99.90;;;;;;6225801;28;20240;-64
2022/08/20 03:09:31;;;;;;;12.97;5.40;;;21.10;99.90;;;;;;6221393;28;20237;-64
2022/08/20 03:12:34;;;;;;;11.10;6.03;;;21.10;99.90;;;;;;6225937;28;20229;-64
2022/08/20 03:15:41;;;;;;;9.00;5.33;;;21.10;99.90;;;;;;6225558;28;20237;-64
2022/08/20 03:18:46;;;;;;;8.80;4.37;;;21.00;99.90;;;;;;6226129;28;20356;-64
2022/08/20 03:21:54;;;;;;;9.87;5.37;;;21.00;99.90;;;;;;6225812;28;20583;-64
2022/08/20 03:24:57;;;;;;;6.87;5.17;;;20.90;99.90;;;;;;6225498;28;20688;-64
2022/08/20 03:28:00;;;;;;;6.53;5.00;;;20.90;99.90;;;;;;6225883;28;20551;-65
2022/08/20 03:31:06;;;;;;;7.67;5.20;;;20.90;99.90;;;;;;6225454;28;20641;-65
2022/08/20 03:34:09;;;;;;;5.87;5.10;;;20.90;99.90;;;;;;6225663;28;20193;-64
2022/08/20 03:37:12;;;;;;;12.80;5.47;;;20.90;99.90;;;;;;6225193;28;20249;-64
2022/08/20 03:40:20;;;;;;;8.30;4.67;;;20.90;99.90;;;;;;6225401;28;20215;-65
2022/08/20 03:43:24;;;;;;;9.40;5.07;;;20.80;99.90;;;;;;6225642;28;20563;-63
2022/08/20 03:46:28;;;;;;;7.87;5.10;;;20.80;99.90;;;;;;6225339;28;20244;-64
2022/08/20 03:49:32;;;;;;;8.67;5.20;;;20.80;99.90;;;;;;6225590;28;20328;-64
2022/08/20 03:52:36;;;;;;;8.57;5.50;;;20.80;99.90;;;;;;6225260;28;20229;-64
2022/08/20 03:55:39;;;;;;;8.17;5.40;;;20.80;99.90;;;;;;6242986;28;20228;-64
2022/08/20 03:58:47;;;;;;;6.70;5.20;;;20.80;99.90;;;;;;6254532;28;20224;-64
2022/08/20 04:01:52;;;;;;;8.17;5.30;;;20.70;99.90;;;;;;6254847;28;20549;-64
2022/08/20 04:04:55;;;;;;;7.87;6.10;;;20.60;99.90;;;;;;6254844;28;20243;-64
2022/08/20 04:08:00;;;;;;;7.73;5.20;;;20.60;99.90;;;;;;6254847;28;20242;-64
2022/08/20 04:11:05;;;;;;;7.00;6.00;;;20.50;99.90;;;;;;6254622;28;20236;-64
2022/08/20 04:14:09;;;;;;;8.13;6.03;;;20.50;99.90;;;;;;6245364;28;20236;-64
2022/08/20 04:17:16;;;;;;;7.80;4.40;;;20.60;99.90;;;;;;6254704;28;20236;-64
2022/08/20 04:20:22;;;;;;;6.00;4.63;;;20.60;99.90;;;;;;6243664;28;20217;-64
2022/08/20 04:23:26;;;;;;;5.87;5.13;;;20.50;99.90;;;;;;6229826;28;20715;-64
2022/08/20 04:26:29;;;;;;;8.37;5.03;;;20.60;99.90;;;;;;6229552;28;20229;-64
2022/08/20 04:29:33;;;;;;;6.97;5.60;;;20.60;99.90;;;;;;6229457;28;20233;-64
2022/08/20 04:32:40;;;;;;;5.63;4.97;;;20.50;99.90;;;;;;6229418;28;20360;-64
2022/08/20 04:35:44;;;;;;;8.00;4.80;;;20.60;99.90;;;;;;6229216;28;20684;-65
2022/08/20 04:38:47;;;;;;;7.07;5.17;;;20.60;99.90;;;;;;6229624;28;20569;-65
2022/08/20 04:41:52;;;;;;;8.70;5.37;;;20.70;99.90;;;;;;6229317;28;20694;-65
2022/08/20 04:44:56;;;;;;;9.67;4.90;;;20.70;99.90;;;;;;6228778;28;20237;-65
2022/08/20 04:48:04;;;;;;;6.10;4.97;;;20.80;99.90;;;;;;6228598;28;20236;-65
2022/08/20 04:51:08;;;;;;;9.37;5.30;;;20.80;99.90;;;;;;6229138;28;20236;-65
2022/08/20 04:54:13;;;;;;;8.10;5.30;;;20.80;99.90;;;;;;6228814;28;20330;-65
2022/08/20 04:57:16;;;;;;;6.17;5.37;;;20.80;99.90;;;;;;6228726;28;20229;-65
2022/08/20 05:00:19;;;;;;;8.60;5.87;;;20.90;99.90;;;;;;6228803;28;20237;-64
2022/08/20 05:03:25;;;;;;;7.23;5.50;;;21.00;99.90;;;;;;6228664;28;20673;-64
2022/08/20 05:06:31;;;;;;;9.83;5.30;;;21.10;99.90;;;;;;6228567;28;20229;-64
2022/08/20 05:09:34;;;;;;;6.93;6.13;;;21.10;99.90;;;;;;6228609;28;20233;-64
2022/08/20 05:12:46;;;;;;;6.00;5.23;;;21.20;99.90;;;;;;6228508;28;20233;-64
2022/08/20 05:16:00;;;;;;;7.33;5.27;;;21.20;99.90;;;;;;6227909;28;20229;-64
2022/08/20 05:19:07;;;;;;;7.57;4.87;;;21.20;99.90;;;;;;6228265;28;20516;-64
2022/08/20 05:22:10;;;;;;;11.13;5.70;;;21.20;99.90;;;;;;6228724;28;20185;-64
2022/08/20 05:25:14;;;;;;;6.47;5.20;;;21.30;99.90;;;;;;6228208;28;20225;-64
2022/08/20 05:28:19;;;;;;;6.40;4.97;;;21.40;99.90;;;;;;6228625;28;20208;-64
2022/08/20 05:31:22;;;;;;;10.03;5.40;;;21.40;99.90;;;;;;6228559;28;20248;-64
2022/08/20 05:34:35;;;;;;;8.90;5.10;;;21.50;99.90;;;;;;6228360;28;20318;-64
2022/08/20 05:37:41;;;;;;;7.70;5.00;;;21.60;99.90;;;;;;6227805;28;20233;-64
2022/08/20 05:40:45;;;;;;;9.03;5.17;;;21.50;99.90;;;;;;6228463;28;20233;-64
2022/08/20 05:43:48;;;;;;;10.60;5.60;;;21.60;99.90;;;;;;6228234;28;20244;-64
2022/08/20 05:46:53;;;;;;;8.40;5.20;;;21.60;99.90;;;;;;6227592;28;20248;-64
2022/08/20 05:49:58;;;;;;;6.23;5.43;;;21.60;99.90;;;;;;6227724;28;20225;-64
2022/08/20 05:53:01;;;;;;;8.30;5.77;;;21.70;99.90;;;;;;6227798;28;20256;-64
2022/08/20 05:56:04;;;;;;;8.10;6.10;;;21.90;99.90;;;;;;6227617;28;20237;-63
2022/08/20 05:59:09;;;;;;;9.90;6.33;;;22.00;99.90;;;;;;6227456;28;20244;-63
2022/08/20 06:05:30;;;;;;;8.13;4.93;;;22.90;99.90;;;;;;6227063;28;20238;-64
2022/08/20 06:08:33;;;;;;;8.10;5.93;;;23.40;99.90;;;;;;6227253;28;20798;-63
2022/08/20 06:11:37;;;;;;;7.37;5.00;;;23.80;99.90;;;;;;6227202;28;20228;-64
2022/08/20 06:14:40;;;;;;;7.90;4.93;;;24.10;99.90;;;;;;6226966;28;20239;-63
2022/08/20 06:17:43;;;;;;;7.33;4.80;;;24.40;99.90;;;;;;6226402;28;20660;-65
2022/08/20 06:21:01;;;;;;;8.63;4.90;;;24.60;99.90;;;;;;6222307;28;20352;-64
2022/08/20 06:24:05;;;;;;;6.83;4.77;;;24.80;99.90;;;;;;6226930;28;20252;-64
2022/08/20 06:27:08;;;;;;;4.87;4.33;;;24.80;99.90;;;;;;6226883;28;20667;-64
2022/08/20 06:30:14;;;;;;;5.93;4.07;;;24.90;99.90;;;;;;6226327;28;20233;-64
2022/08/20 06:33:17;;;;;;;6.20;4.60;;;24.90;99.90;;;;;;6226813;28;20224;-64
2022/08/20 06:36:22;;;;;;;5.10;4.13;;;24.90;99.90;;;;;;6226425;28;20695;-64
2022/08/20 06:39:27;;;;;;;6.30;4.30;;;25.00;99.90;;;;;;6226532;28;20233;-64
2022/08/20 06:42:30;;;;;;;6.33;4.30;;;25.10;99.90;;;;;;6226613;28;20238;-64
2022/08/20 06:45:34;;;;;;;5.27;4.50;;;25.30;98.90;;;;;;6226896;28;20237;-64
2022/08/20 06:48:38;;;;;;;6.90;4.70;;;25.20;98.60;;;;;;6226356;28;20238;-64
2022/08/20 06:51:42;;;;;;;5.30;3.57;;;25.60;98.40;;;;;;6226613;28;20582;-64
2022/08/20 06:54:46;;;;;;;7.37;4.17;;;26.50;97.50;;;;;;6228546;28;20223;-64
2022/08/20 06:57:58;;;;;;;8.63;4.50;;;27.70;95.60;;;;;;6237468;28;20220;-64
2022/08/20 07:01:01;;;;;;;6.37;4.10;;;28.70;93.20;;;;;;6242685;28;20283;-65
2022/08/20 07:04:12;;;;;;;9.00;4.33;;;29.50;91.70;;;;;;6237701;28;20192;-65
2022/08/20 07:07:19;;;;;;;4.07;3.67;;;30.30;88.40;;;;;;6248676;28;20619;-65
2022/08/20 07:10:24;;;;;;;7.50;3.70;;;30.80;83.50;;;;;;6250581;28;20238;-65
2022/08/20 07:13:27;;;;;;;5.68;3.42;;;31.40;79.60;;;;;;6250231;28;20239;-65
2022/08/20 07:16:31;;;;;;;5.10;4.07;;;32.10;75.70;;;;;;6250198;28;20694;-65
2022/08/20 07:19:36;;;;;;;6.68;3.65;;;33.00;71.50;;;;;;6250044;28;20242;-65
2022/08/20 07:22:41;;;;;;;7.60;4.25;;;33.90;66.80;;;;;;6250551;28;20324;-65
2022/08/20 07:25:45;;;;;;;7.30;5.65;;;34.80;62.40;;;;;;6237107;28;20225;-65
2022/08/20 07:28:48;;;;;;;9.60;5.07;;;35.60;61.60;;;;;;6235497;28;20657;-66
2022/08/20 07:35:30;;;;;;;7.85;4.90;;;37.20;56.00;;;;;;6158302;28;20230;-65
2022/08/20 07:38:36;;;;;;;6.35;3.63;;;38.40;52.90;;;;;;6163470;28;20588;-67
2022/08/20 07:41:40;;;;;;;4.68;3.63;;;39.70;47.00;;;;;;6236884;28;20307;-66
2022/08/20 07:44:43;;;;;;;6.13;4.30;;;40.90;43.80;;;;;;6236772;28;20231;-66
2022/08/20 07:47:48;;;;;;;6.22;4.25;;;42.10;42.00;;;;;;6237891;28;20231;-66
2022/08/20 07:50:51;;;;;;;7.88;3.38;;;43.40;39.50;;;;;;6233588;28;20220;-66
2022/08/20 07:53:58;;;;;;;4.38;3.50;;;44.20;35.40;;;;;;6226747;28;20228;-67
2022/08/20 07:57:02;;;;;;;5.20;3.30;;;44.70;33.90;;;;;;6225436;28;20234;-67
2022/08/20 08:00:08;;;;;;;6.10;3.22;;;45.40;32.70;;;;;;6225410;28;20224;-67
2022/08/20 08:03:12;;;;;;;4.35;3.95;;;46.20;31.20;;;;;;6225364;28;20243;-67
2022/08/20 08:06:15;;;;;;;5.18;3.72;;;46.20;32.10;;;;;;6230670;28;20572;-67
2022/08/20 08:09:33;;;;;;;6.85;4.05;;;46.00;31.50;;;;;;6234226;28;20246;-67
2022/08/20 08:12:40;;;;;;;7.28;4.30;;;46.00;32.10;;;;;;6237098;28;20688;-67
2022/08/20 08:15:48;;;;;;;7.75;5.10;;;45.60;32.20;;;;;;6227004;28;20439;-67
2022/08/20 08:18:55;;;;;;;4.30;3.45;;;45.80;32.70;;;;;;6224235;28;20235;-67
2022/08/20 08:21:58;;;;;;;5.45;4.40;;;45.80;31.80;;;;;;6219749;28;20611;-66
2022/08/20 08:25:04;;;;;;;6.68;4.28;;;45.70;32.30;;;;;;6224656;28;20229;-66
2022/08/20 08:28:10;;;;;;;4.88;3.50;;;45.40;32.10;;;;;;6216132;28;20197;-66
2022/08/20 08:31:14;;;;;;;3.83;3.50;;;44.70;31.80;;;;;;6224987;28;20209;-66
2022/08/20 08:34:17;;;;;;;5.97;4.05;;;44.80;32.00;;;;;;6228988;28;20197;-66
2022/08/20 08:37:21;;;;;;;3.42;3.00;;;45.90;31.60;;;;;;6233196;28;20240;-65
2022/08/20 08:40:25;;;;;;;4.00;3.47;;;46.80;30.00;;;;;;6235609;28;20265;-65
2022/08/20 08:43:29;;;;;;;5.82;3.70;;;47.40;30.00;;;;;;6229371;28;20656;-66
2022/08/20 08:46:39;;;;;;;4.63;3.75;;;47.70;29.70;;;;;;6240170;28;20762;-66
2022/08/20 08:49:42;;;;;;;3.83;3.33;;;48.70;28.70;;;;;;6243823;28;20230;-66
2022/08/20 08:52:46;;;;;;;4.57;2.67;;;49.10;27.80;;;;;;6235036;28;20228;-66
2022/08/20 08:55:50;;;;;;;3.40;1.83;;;48.40;26.70;;;;;;6240903;28;20231;-66
2022/08/20 08:58:55;;;;;;;4.40;2.38;;;47.80;26.00;;;;;;6233694;28;20264;-66
2022/08/20 09:02:01;;;;;;;4.30;3.38;;;47.20;26.70;;;;;;6239570;28;20226;-65
2022/08/20 09:05:13;;;;;;;7.05;3.70;;;42.70;31.40;;;;;;6237507;28;20233;-65
2022/08/20 09:08:19;;;;;;;3.90;3.15;;;41.30;34.30;;;;;;6239581;28;20690;-65
2022/08/20 09:11:24;;;;;;;4.00;3.25;;;40.90;34.60;;;;;;6237190;28;20221;-66
2022/08/20 09:14:28;;;;;;;4.47;3.00;;;39.80;36.10;;;;;;6240646;28;20259;-67
2022/08/20 09:17:31;;;;;;;4.35;3.20;;;38.70;37.40;;;;;;6240395;28;20568;-66
2022/08/20 09:20:34;;;;;;;5.68;2.83;;;37.20;40.10;;;;;;6230455;28;20660;-66
2022/08/20 09:23:38;;;;;;;1.30;1.20;;;37.10;40.10;;;;;;6234850;28;20567;-66
2022/08/20 09:26:42;;;;;;;2.90;0.73;;;37.00;35.80;;;;;;6239459;28;20223;-66
2022/08/20 09:29:45;;;;;;;1.50;1.00;;;37.10;35.60;;;;;;6241116;28;20228;-66
2022/08/20 09:32:51;;;;;;;2.25;1.27;;;37.00;35.00;;;;;;6228339;28;20232;-66
2022/08/20 09:35:54;;;;;;;1.77;1.67;;;36.40;35.30;;;;;;6240782;28;20286;-65
2022/08/20 09:38:57;;;;;;;3.13;1.15;;;35.60;36.00;;;;;;6252056;28;20234;-65
2022/08/20 09:42:08;;;;;;;1.20;0.93;;;34.70;37.10;;;;;;6252650;28;20239;-65
2022/08/20 09:45:13;;;;;;;2.53;1.30;;;33.90;39.10;;;;;;6252815;28;20228;-69
2022/08/20 09:48:16;;;;;;;3.15;2.85;;;33.20;40.60;;;;;;6252062;28;20584;-66
2022/08/20 09:51:19;;;;;;;4.82;2.80;;;32.60;46.20;;;;;;6252295;28;20318;-67
2022/08/20 09:54:26;;;;;;;4.13;2.60;;;32.00;47.60;;;;;;6250902;28;20305;-66
2022/08/20 09:57:34;;;;;;;2.03;1.75;;;31.70;48.30;;;;;;6251954;28;20354;-66
2022/08/20 10:00:38;;;;;;;1.70;1.33;;;31.30;47.00;;;;;;6252125;28;20247;-67
2022/08/20 10:03:41;;;;;;;2.03;1.10;;;30.70;46.00;;;;;;6251702;28;20239;-66
2022/08/20 10:06:45;;;;;;;2.17;1.48;;;30.00;47.70;;;;;;6252148;28;20239;-66
2022/08/20 10:09:48;;;;;;;2.03;1.57;;;29.40;49.00;;;;;;6245933;28;20223;-66
2022/08/20 10:12:53;;;;;;;1.73;1.47;;;29.00;50.10;;;;;;6251937;28;20227;-66
2022/08/20 10:15:57;;;;;;;1.33;1.00;;;28.50;51.20;;;;;;6251571;28;20569;-66
2022/08/20 10:19:00;;;;;;;2.10;1.10;;;28.00;52.50;;;;;;6251379;28;20232;-65
2022/08/20 10:22:03;;;;;;;2.57;0.80;;;27.60;53.50;;;;;;6251874;28;20234;-65
2022/08/20 10:25:08;;;;;;;3.57;0.80;;;27.20;54.10;;;;;;6252165;28;20235;-66
2022/08/20 10:28:12;;;;;;;0.90;0.70;;;26.80;55.00;;;;;;6252042;28;20222;-66
2022/08/20 10:31:15;;;;;;;0.90;0.60;;;26.50;55.40;;;;;;6244142;28;20203;-66
2022/08/20 10:34:19;;;;;;;1.00;0.60;;;26.50;56.10;;;;;;6247666;28;20204;-68
2022/08/20 10:37:24;;;;;;;1.13;1.03;;;26.40;56.40;;;;;;6228385;28;20704;-67
2022/08/20 10:40:28;;;;;;;3.50;0.80;;;26.40;56.50;;;;;;6226308;28;20236;-67
2022/08/20 10:43:32;;;;;;;1.63;0.70;;;26.40;56.80;;;;;;6225916;28;20236;-65
2022/08/20 10:46:35;;;;;;;1.20;0.90;;;26.40;57.00;;;;;;6239175;28;20234;-65
2022/08/20 10:49:38;;;;;;;2.30;0.67;;;26.50;57.50;;;;;;6245021;28;20604;-65
2022/08/20 10:52:42;;;;;;;1.30;1.00;;;26.50;57.00;;;;;;6248744;28;20254;-67
2022/08/20 10:55:45;;;;;;;1.60;0.77;;;26.50;57.10;;;;;;6250685;28;20680;-65
2022/08/20 10:58:50;;;;;;;2.00;0.83;;;26.50;57.40;;;;;;6241681;28;20678;-65
2022/08/20 11:01:53;;;;;;;1.80;1.33;;;26.40;58.20;;;;;;6233890;28;20221;-65
2022/08/20 11:04:56;;;;;;;1.80;1.33;;;26.50;59.00;;;;;;6241132;28;20224;-66
2022/08/20 11:08:02;;;;;;;1.43;0.93;;;26.50;58.50;;;;;;6228674;28;20552;-66
2022/08/20 11:11:07;;;;;;;1.93;1.10;;;26.50;58.70;;;;;;6238774;28;20256;-65
2022/08/20 11:14:11;;;;;;;1.13;1.03;;;26.40;58.90;;;;;;6240196;28;20229;-66
2022/08/20 11:17:19;;;;;;;1.90;1.20;;;26.40;59.00;;;;;;6240230;28;20227;-64
2022/08/20 11:20:24;;;;;;;4.33;1.83;;;26.30;59.40;;;;;;6237849;28;20239;-64
2022/08/20 11:23:28;;;;;;;1.33;1.23;;;26.30;59.50;;;;;;6226585;28;20239;-65
2022/08/20 11:26:32;;;;;;;3.73;2.63;;;26.40;59.60;;;;;;6235502;28;20224;-65
2022/08/20 11:29:38;;;;;;;83.40;41.97;;;26.30;59.80;;;;;;6231074;28;20238;-64
2022/08/20 11:32:44;;;;;;;13.20;7.60;;;26.30;60.30;;;;;;6230403;28;20225;-66
2022/08/20 11:35:47;;;;;;;6.50;3.57;;;26.20;60.20;;;;;;6225235;28;20663;-66
2022/08/20 11:38:52;;;;;;;5.70;3.07;;;26.20;60.70;;;;;;6225455;28;20239;-66
2022/08/20 11:41:55;;;;;;;5.77;3.00;;;26.20;61.50;;;;;;6220526;28;20686;-66
2022/08/20 11:45:00;;;;;;;2.77;1.53;;;26.30;62.00;;;;;;6227990;28;20247;-63
2022/08/20 11:48:03;;;;;;;2.47;1.27;;;26.30;61.20;;;;;;6225619;28;20236;-63
2022/08/20 11:51:07;;;;;;;3.03;2.00;;;26.30;61.10;;;;;;6245624;28;20230;-63
2022/08/20 11:54:10;;;;;;;2.60;2.03;;;26.30;65.90;;;;;;6249679;28;20231;-63
2022/08/20 11:57:13;;;;;;;3.97;2.20;;;25.60;70.50;;;;;;6250181;28;20309;-65
2022/08/20 12:00:22;;;;;;;1.97;1.77;;;25.50;73.30;;;;;;6238447;28;20232;-67
2022/08/20 12:03:35;;;;;;;2.63;2.10;;;25.40;74.70;;;;;;6225239;28;20703;-65
2022/08/20 12:06:38;;;;;;;1.87;1.30;;;25.40;76.40;;;;;;6224879;28;20236;-65
2022/08/20 12:09:42;;;;;;;2.80;2.00;;;25.20;78.60;;;;;;6224101;28;20243;-65
2022/08/20 12:12:53;;;;;;;5.93;1.83;;;25.10;79.90;;;;;;6233206;28;20751;-66
2022/08/20 12:15:58;;;;;;;3.13;1.80;;;24.80;82.30;;;;;;6226792;28;20675;-65
2022/08/20 12:19:01;;;;;;;2.93;2.10;;;24.50;84.80;;;;;;6230125;28;20228;-64
2022/08/20 12:22:04;;;;;;;2.80;2.07;;;24.50;86.70;;;;;;6229952;28;20244;-65
2022/08/20 12:25:27;;;;;;;4.10;2.83;;;24.60;87.80;;;;;;6205105;28;20233;-64
2022/08/20 12:28:30;;;;;;;2.40;2.03;;;24.80;88.70;;;;;;6204029;28;20240;-64
2022/08/20 12:31:35;;;;;;;2.57;2.33;;;24.80;88.50;;;;;;6204243;28;20660;-64
2022/08/20 12:34:39;;;;;;;3.83;2.17;;;24.90;89.20;;;;;;6205437;28;20233;-64
2022/08/20 12:37:44;;;;;;;2.60;2.00;;;24.80;89.00;;;;;;6205844;28;20251;-65
2022/08/20 12:40:49;;;;;;;2.00;1.43;;;24.60;90.00;;;;;;6205499;28;20238;-64
2022/08/20 12:43:52;;;;;;;4.27;2.37;;;24.60;90.70;;;;;;6200631;28;20234;-65
2022/08/20 12:47:07;;;;;;;2.53;2.20;;;24.50;91.50;;;;;;6205015;28;20709;-65
2022/08/20 12:50:12;;;;;;;1.90;1.80;;;24.50;93.00;;;;;;6205407;28;20232;-65
2022/08/20 12:53:16;;;;;;;2.00;1.70;;;24.40;93.50;;;;;;6205534;28;20233;-64
2022/08/20 12:56:19;;;;;;;2.67;1.80;;;24.10;94.20;;;;;;6205299;28;20244;-64
2022/08/20 12:59:23;;;;;;;3.10;1.67;;;24.20;95.20;;;;;;6204881;28;20240;-64
2022/08/20 13:02:29;;;;;;;1.97;1.80;;;24.20;96.10;;;;;;6204694;28;20234;-64
2022/08/20 13:05:33;;;;;;;2.80;1.83;;;24.40;96.10;;;;;;6204703;28;20229;-64
2022/08/20 13:08:36;;;;;;;2.23;1.53;;;24.50;96.10;;;;;;6204580;28;20229;-64
2022/08/20 13:11:39;;;;;;;2.10;1.90;;;24.60;96.30;;;;;;6204425;28;20230;-64
2022/08/20 13:14:43;;;;;;;2.17;1.57;;;24.80;96.40;;;;;;6204367;28;20238;-64
2022/08/20 13:17:51;;;;;;;2.53;2.30;;;25.00;96.20;;;;;;6204092;28;20237;-64
2022/08/20 13:20:54;;;;;;;3.57;2.03;;;25.10;96.30;;;;;;6204348;28;20237;-65
2022/08/20 13:23:57;;;;;;;3.80;1.50;;;25.10;96.40;;;;;;6204123;28;20241;-65
2022/08/20 13:27:05;;;;;;;2.30;1.60;;;25.30;96.40;;;;;;6203202;28;20672;-65
2022/08/20 13:30:10;;;;;;;1.87;1.70;;;25.40;95.10;;;;;;6204098;28;20248;-65
2022/08/20 13:33:15;;;;;;;4.23;2.10;;;25.40;94.70;;;;;;6203853;28;20900;-65
2022/08/20 13:36:18;;;;;;;3.73;2.03;;;25.60;95.10;;;;;;6203891;28;20237;-64
2022/08/20 13:39:23;;;;;;;4.40;2.37;;;25.70;94.60;;;;;;6203855;28;20587;-65
2022/08/20 13:42:27;;;;;;;2.50;1.87;;;25.80;94.60;;;;;;6203291;28;20237;-64
2022/08/20 13:45:30;;;;;;;5.10;1.63;;;25.90;93.90;;;;;;6203478;28;20237;-65
2022/08/20 13:48:35;;;;;;;4.03;1.40;;;26.20;93.50;;;;;;6203405;28;20240;-64
2022/08/20 13:51:38;;;;;;;2.60;2.20;;;26.30;93.10;;;;;;6199210;28;20237;-64
2022/08/20 13:54:41;;;;;;;2.23;1.50;;;26.30;92.60;;;;;;6203376;28;20232;-65
2022/08/20 13:57:45;;;;;;;1.10;0.70;;;26.50;91.00;;;;;;6203522;28;20278;-64
2022/08/20 14:00:49;;;;;;;2.30;1.03;;;26.50;82.00;;;;;;6203692;28;20229;-64
2022/08/20 14:03:54;;;;;;;2.00;0.80;;;26.60;84.70;;;;;;6203079;28;20229;-65
2022/08/20 14:06:57;;;;;;;2.17;1.10;;;26.70;78.30;;;;;;6203345;28;20243;-65
2022/08/20 14:10:03;;;;;;;2.23;0.60;;;26.80;77.60;;;;;;6202792;28;20244;-65
2022/08/20 14:13:07;;;;;;;1.13;0.37;;;26.80;70.70;;;;;;6203183;28;20209;-64
2022/08/20 14:16:16;;;;;;;1.83;0.50;;;26.70;68.50;;;;;;6202602;28;20268;-65
2022/08/20 14:19:30;;;;;;;1.47;0.40;;;26.60;68.40;;;;;;6202843;28;20247;-65
2022/08/20 14:22:34;;;;;;;0.60;0.30;;;26.70;69.10;;;;;;6203324;28;20237;-64
2022/08/20 14:25:38;;;;;;;0.70;0.40;;;26.90;68.20;;;;;;6202854;28;20300;-65
2022/08/20 14:28:41;;;;;;;0.87;0.40;;;27.10;66.00;;;;;;6202819;28;20225;-65
2022/08/20 14:31:45;;;;;;;0.70;0.30;;;27.20;66.50;;;;;;6202673;28;20650;-65
2022/08/20 14:34:49;;;;;;;1.00;0.40;;;27.40;65.10;;;;;;6202612;28;20241;-65
2022/08/20 14:37:55;;;;;;;0.80;0.50;;;27.40;64.10;;;;;;6202375;28;20240;-65
2022/08/20 14:40:58;;;;;;;0.80;0.47;;;27.40;63.80;;;;;;6202374;28;20577;-66
2022/08/20 14:44:01;;;;;;;1.33;0.60;;;27.50;63.00;;;;;;6202702;28;20307;-66
2022/08/20 14:47:13;;;;;;;1.00;0.50;;;27.60;62.10;;;;;;6202319;28;20240;-66
2022/08/20 14:50:19;;;;;;;1.77;0.50;;;27.50;61.70;;;;;;6202711;28;20558;-66
2022/08/20 14:53:23;;;;;;;1.17;0.73;;;27.40;61.20;;;;;;6193110;28;20662;-66
2022/08/20 14:56:26;;;;;;;1.23;0.60;;;27.30;61.60;;;;;;6202307;28;20238;-68
2022/08/20 14:59:29;;;;;;;0.90;0.60;;;27.20;61.40;;;;;;6202275;28;20229;-67
2022/08/20 15:02:32;;;;;;;0.90;0.60;;;27.20;63.30;;;;;;6201886;28;20247;-67
2022/08/20 15:05:37;;;;;;;0.70;0.60;;;27.10;62.60;;;;;;6201809;28;20913;-67
2022/08/20 15:08:41;;;;;;;1.00;0.50;;;27.00;62.80;;;;;;6201933;28;20235;-66
2022/08/20 15:11:45;;;;;;;1.03;0.40;;;26.90;62.10;;;;;;6202817;28;20221;-66
2022/08/20 15:14:48;;;;;;;0.77;0.50;;;26.80;62.60;;;;;;6201552;28;20658;-66
2022/08/20 15:17:53;;;;;;;1.33;0.60;;;26.70;63.30;;;;;;6202379;28;20232;-66
2022/08/20 15:20:58;;;;;;;1.60;1.30;;;26.60;62.70;;;;;;6202567;28;20233;-66
2022/08/20 15:24:01;;;;;;;0.80;0.60;;;26.30;63.80;;;;;;6202590;28;20582;-66
2022/08/20 15:27:12;;;;;;;0.80;0.60;;;26.10;63.20;;;;;;6201894;28;20252;-66
2022/08/20 15:30:18;;;;;;;0.90;0.70;;;26.00;64.60;;;;;;6201790;28;20229;-66
2022/08/20 15:33:21;;;;;;;0.90;0.70;;;25.90;65.00;;;;;;6201502;28;20228;-67
2022/08/20 15:36:26;;;;;;;1.00;0.90;;;25.70;65.60;;;;;;6201484;28;20244;-66
2022/08/20 15:39:29;;;;;;;0.93;0.63;;;25.70;65.50;;;;;;6201805;28;20240;-66
2022/08/20 15:42:32;;;;;;;1.00;0.80;;;25.60;65.80;;;;;;6201470;28;20248;-66
2022/08/20 15:45:37;;;;;;;0.90;0.80;;;25.70;66.30;;;;;;6201139;28;20259;-66
2022/08/20 15:48:44;;;;;;;1.00;0.77;;;25.70;66.20;;;;;;6201475;28;20565;-66
2022/08/20 15:51:50;;;;;;;1.03;0.80;;;25.80;66.30;;;;;;6204516;28;20243;-66
2022/08/20 15:54:53;;;;;;;1.23;0.77;;;25.70;66.60;;;;;;6206715;28;20528;-66
2022/08/20 15:58:05;;;;;;;1.10;0.83;;;25.80;66.40;;;;;;6206431;28;20403;-66
2022/08/20 16:01:16;;;;;;;0.90;0.70;;;25.70;66.40;;;;;;6206563;28;20607;-66
2022/08/20 16:04:51;;;;;;;0.70;0.70;;;25.70;66.80;;;;;;6206093;28;20673;-66
2022/08/20 16:08:13;;;;;;;1.03;0.93;;;25.60;66.40;;;;;;6206140;28;20251;-66